createdAt,value
2019-06-07T00:00:56.331Z,0.00
2019-06-07T00:01:56.395Z,0.00
2019-06-07T00:02:56.459Z,0.00
2019-06-07T00:03:56.531Z,0.00
2019-06-07T00:04:56.603Z,0.00
2019-06-07T00:05:56.651Z,0.00
2019-06-07T00:06:56.713Z,0.00
2019-06-07T00:08:07.163Z,0.00
2019-06-07T00:08:56.848Z,0.00
2019-06-07T00:09:56.912Z,0.00
2019-06-07T00:10:56.964Z,0.00
2019-06-07T00:11:57.031Z,0.00
2019-06-07T00:12:57.092Z,0.00
2019-06-07T00:13:57.169Z,0.00
2019-06-07T00:14:57.220Z,0.00
2019-06-07T00:15:57.289Z,0.00
2019-06-07T00:16:57.344Z,0.00
2019-06-07T00:17:57.414Z,0.00
2019-06-07T00:18:57.480Z,0.00
2019-06-07T00:19:57.544Z,0.00
2019-06-07T00:20:57.597Z,0.00
2019-06-07T00:22:18.442Z,0.00
2019-06-07T00:22:57.724Z,0.00
2019-06-07T00:23:57.830Z,0.00
2019-06-07T00:24:57.856Z,0.00
2019-06-07T00:25:57.916Z,0.00
2019-06-07T00:26:59.231Z,0.00
2019-06-07T00:27:58.040Z,0.00
2019-06-07T00:28:58.133Z,0.00
2019-06-07T00:29:58.168Z,0.00
2019-06-07T00:30:58.233Z,0.00
2019-06-07T00:31:58.292Z,0.00
2019-06-07T00:32:58.369Z,0.00
2019-06-07T00:33:58.429Z,0.00
2019-06-07T00:34:58.489Z,0.00
2019-06-07T00:35:58.545Z,0.00
2019-06-07T00:36:58.610Z,0.00
2019-06-07T00:37:58.673Z,0.00
2019-06-07T00:38:58.742Z,0.00
2019-06-07T00:40:14.002Z,0.00
2019-06-07T00:40:58.861Z,0.00
2019-06-07T00:41:58.925Z,0.00
2019-06-07T00:42:58.985Z,0.00
2019-06-07T00:43:59.057Z,0.00
2019-06-07T00:44:59.121Z,0.00
2019-06-07T00:45:59.178Z,0.00
2019-06-07T00:46:59.242Z,0.00
2019-06-07T00:47:59.301Z,0.00
2019-06-07T00:48:59.382Z,0.00
2019-06-07T00:49:59.429Z,0.00
2019-06-07T00:50:59.493Z,0.00
2019-06-07T00:51:59.554Z,0.00
2019-06-07T00:53:14.548Z,0.00
2019-06-07T00:53:59.690Z,0.00
2019-06-07T00:54:59.754Z,0.00
2019-06-07T00:55:59.811Z,0.00
2019-06-07T00:56:59.892Z,0.00
2019-06-07T00:57:59.935Z,0.00
2019-06-07T00:59:11.138Z,0.00
2019-06-07T01:00:00.066Z,0.00
2019-06-07T01:01:00.122Z,0.00
2019-06-07T01:02:00.187Z,0.00
2019-06-07T01:03:00.250Z,0.00
2019-06-07T01:04:00.314Z,0.00
2019-06-07T01:05:00.387Z,0.00
2019-06-07T01:06:00.438Z,0.00
2019-06-07T01:07:00.503Z,0.00
2019-06-07T01:08:00.566Z,0.00
2019-06-07T01:09:00.626Z,0.00
2019-06-07T01:10:00.701Z,0.00
2019-06-07T01:11:00.774Z,0.00
2019-06-07T01:12:00.819Z,0.00
2019-06-07T01:13:00.936Z,0.00
2019-06-07T01:14:00.943Z,0.00
2019-06-07T01:15:01.015Z,0.00
2019-06-07T01:16:01.079Z,0.00
2019-06-07T01:17:22.219Z,0.00
2019-06-07T01:18:33.498Z,0.00
2019-06-07T01:19:01.259Z,0.00
2019-06-07T01:20:01.331Z,0.00
2019-06-07T01:21:01.393Z,0.00
2019-06-07T01:22:01.447Z,0.00
2019-06-07T01:23:01.513Z,0.00
2019-06-07T01:24:11.452Z,0.00
2019-06-07T01:25:01.645Z,0.00
2019-06-07T01:26:01.708Z,0.00
2019-06-07T01:27:01.764Z,0.00
2019-06-07T01:28:01.831Z,0.00
2019-06-07T01:29:01.899Z,0.00
2019-06-07T01:30:01.965Z,0.00
2019-06-07T01:31:02.024Z,0.00
2019-06-07T01:32:02.079Z,0.00
2019-06-07T01:33:02.141Z,0.00
2019-06-07T01:34:02.217Z,0.00
2019-06-07T01:35:02.284Z,0.00
2019-06-07T01:36:02.329Z,0.00
2019-06-07T01:37:02.421Z,0.00
2019-06-07T01:38:02.458Z,0.00
2019-06-07T01:39:02.516Z,0.00
2019-06-07T01:40:02.588Z,0.00
2019-06-07T01:41:02.652Z,0.00
2019-06-07T01:42:02.709Z,0.00
2019-06-07T01:43:02.768Z,0.00
2019-06-07T01:44:02.858Z,0.00
2019-06-07T01:45:03.137Z,0.00
2019-06-07T01:46:02.967Z,0.00
2019-06-07T01:47:03.021Z,0.00
2019-06-07T01:48:03.084Z,0.00
2019-06-07T01:49:03.151Z,0.00
2019-06-07T01:50:03.228Z,0.00
2019-06-07T01:51:03.320Z,0.00
2019-06-07T01:52:03.387Z,0.00
2019-06-07T01:53:03.397Z,0.00
2019-06-07T01:54:48.841Z,0.00
2019-06-07T01:55:03.533Z,0.00
2019-06-07T01:56:03.593Z,0.00
2019-06-07T01:57:03.649Z,0.00
2019-06-07T01:58:03.717Z,0.00
2019-06-07T01:59:03.773Z,0.00
2019-06-07T02:00:03.845Z,0.00
2019-06-07T02:01:03.909Z,0.00
2019-06-07T02:02:03.965Z,0.00
2019-06-07T02:03:04.027Z,0.00
2019-06-07T02:04:04.089Z,0.00
2019-06-07T02:05:04.186Z,0.00
2019-06-07T02:06:04.213Z,0.00
2019-06-07T02:07:04.278Z,0.00
2019-06-07T02:08:04.342Z,0.00
2019-06-07T02:09:04.406Z,0.00
2019-06-07T02:10:04.474Z,0.00
2019-06-07T02:11:04.596Z,0.00
2019-06-07T02:12:24.609Z,0.00
2019-06-07T02:13:04.654Z,0.00
2019-06-07T02:14:04.719Z,0.00
2019-06-07T02:15:04.786Z,0.00
2019-06-07T02:16:04.851Z,0.00
2019-06-07T02:17:04.983Z,0.00
2019-06-07T02:18:04.977Z,0.00
2019-06-07T02:19:05.033Z,0.00
2019-06-07T02:20:05.110Z,0.00
2019-06-07T02:21:05.163Z,0.00
2019-06-07T02:22:05.221Z,0.00
2019-06-07T02:23:05.282Z,0.00
2019-06-07T02:24:05.346Z,0.00
2019-06-07T02:25:35.002Z,0.00
2019-06-07T02:26:05.478Z,0.00
2019-06-07T02:27:05.535Z,0.00
2019-06-07T02:28:27.271Z,0.00
2019-06-07T02:29:05.659Z,0.00
2019-06-07T02:30:36.096Z,0.00
2019-06-07T02:31:05.813Z,0.00
2019-06-07T02:32:05.847Z,0.00
2019-06-07T02:33:05.912Z,0.00
2019-06-07T02:34:05.983Z,0.00
2019-06-07T02:35:06.047Z,0.00
2019-06-07T02:36:06.112Z,0.00
2019-06-07T02:37:06.164Z,0.00
2019-06-07T02:38:06.223Z,0.00
2019-06-07T02:39:06.292Z,0.00
2019-06-07T02:40:06.451Z,0.00
2019-06-07T02:41:06.412Z,0.00
2019-06-07T02:42:06.478Z,4.00
2019-06-07T02:43:06.596Z,4.00
2019-06-07T02:44:06.612Z,4.00
2019-06-07T02:45:06.672Z,0.00
2019-06-07T02:46:25.065Z,0.00
2019-06-07T02:47:06.789Z,4.00
2019-06-07T02:48:06.852Z,4.00
2019-06-07T02:49:06.932Z,4.00
2019-06-07T02:50:06.986Z,4.00
2019-06-07T02:51:07.049Z,4.00
2019-06-07T02:52:07.101Z,4.00
2019-06-07T02:53:07.164Z,8.00
2019-06-07T02:54:07.229Z,8.00
2019-06-07T02:55:07.448Z,12.00
2019-06-07T02:57:07.422Z,12.00
2019-06-07T02:58:07.481Z,12.00
2019-06-07T02:59:07.544Z,12.00
2019-06-07T03:00:40.457Z,16.00
2019-06-07T03:01:09.719Z,16.00
2019-06-07T03:02:07.730Z,20.00
2019-06-07T03:03:07.793Z,20.00
2019-06-07T03:04:07.853Z,24.00
2019-06-07T03:05:07.926Z,28.00
2019-06-07T03:06:07.989Z,28.00
2019-06-07T03:07:08.041Z,36.00
2019-06-07T03:08:08.104Z,36.00
2019-06-07T03:09:08.169Z,44.00
2019-06-07T03:10:08.228Z,48.00
2019-06-07T03:11:08.421Z,52.00
2019-06-07T03:12:08.359Z,56.00
2019-06-07T03:13:08.417Z,64.00
2019-06-07T03:14:08.481Z,68.00
2019-06-07T03:15:08.600Z,76.00
2019-06-07T03:16:08.613Z,84.00
2019-06-07T03:17:08.677Z,88.00
2019-06-07T03:18:08.729Z,96.00
2019-06-07T03:19:08.794Z,104.00
2019-06-07T03:20:08.857Z,112.00
2019-06-07T03:21:08.925Z,120.00
2019-06-07T03:22:08.989Z,128.00
2019-06-07T03:23:09.047Z,140.00
2019-06-07T03:24:09.107Z,152.00
2019-06-07T03:25:09.175Z,160.00
2019-06-07T03:26:09.258Z,172.00
2019-06-07T03:28:09.358Z,196.00
2019-06-07T03:29:09.418Z,208.00
2019-06-07T03:30:36.021Z,220.00
2019-06-07T03:31:09.554Z,232.00
2019-06-07T03:32:09.615Z,244.00
2019-06-07T03:33:09.673Z,260.00
2019-06-07T03:34:09.737Z,272.00
2019-06-07T03:35:09.794Z,288.00
2019-06-07T03:36:23.214Z,300.00
2019-06-07T03:37:09.929Z,316.00
2019-06-07T03:38:09.984Z,336.00
2019-06-07T03:39:10.047Z,360.00
2019-06-07T03:40:10.106Z,376.00
2019-06-07T03:41:10.462Z,396.00
2019-06-07T03:42:10.234Z,420.00
2019-06-07T03:43:10.296Z,444.00
2019-06-07T03:44:10.360Z,472.00
2019-06-07T03:45:10.422Z,500.00
2019-06-07T03:46:10.491Z,528.00
2019-06-07T03:47:10.556Z,560.00
2019-06-07T03:48:10.607Z,592.00
2019-06-07T03:49:10.671Z,620.00
2019-06-07T03:50:10.740Z,652.00
2019-06-07T03:51:24.013Z,680.00
2019-06-07T03:52:10.868Z,708.00
2019-06-07T03:53:11.589Z,736.00
2019-06-07T03:54:10.987Z,760.00
2019-06-07T03:55:11.047Z,784.00
2019-06-07T03:56:12.112Z,808.00
2019-06-07T03:57:11.175Z,828.00
2019-06-07T03:58:31.611Z,852.00
2019-06-07T03:59:11.295Z,880.00
2019-06-07T04:00:11.360Z,912.00
2019-06-07T04:01:11.429Z,936.00
2019-06-07T04:02:11.496Z,960.00
2019-06-07T04:03:32.434Z,984.00
2019-06-07T04:04:11.612Z,1016.00
2019-06-07T04:05:11.682Z,1036.00
2019-06-07T04:06:11.744Z,1056.00
2019-06-07T04:07:11.803Z,1080.00
2019-06-07T04:08:11.864Z,1108.00
2019-06-07T04:09:11.942Z,1144.00
2019-06-07T04:10:11.994Z,1184.00
2019-06-07T04:11:12.056Z,1228.00
2019-06-07T04:12:12.117Z,1272.00
2019-06-07T04:13:12.173Z,1320.00
2019-06-07T04:14:12.236Z,1356.00
2019-06-07T04:15:12.296Z,1396.00
2019-06-07T04:16:12.384Z,1448.00
2019-06-07T04:17:12.434Z,1508.00
2019-06-07T04:18:12.488Z,1556.00
2019-06-07T04:19:12.548Z,1616.00
2019-06-07T04:20:12.612Z,1660.00
2019-06-07T04:21:12.685Z,1712.00
2019-06-07T04:22:12.748Z,1776.00
2019-06-07T04:23:27.775Z,1844.00
2019-06-07T04:24:12.864Z,1908.00
2019-06-07T04:25:12.924Z,1956.00
2019-06-07T04:26:12.996Z,2000.00
2019-06-07T04:27:13.057Z,2028.00
2019-06-07T04:28:13.113Z,2044.00
2019-06-07T04:30:13.286Z,2020.00
2019-06-07T04:31:13.461Z,1972.00
2019-06-07T04:32:13.365Z,1920.00
2019-06-07T04:33:13.429Z,1904.00
2019-06-07T04:34:13.496Z,1912.00
2019-06-07T04:35:13.554Z,1904.00
2019-06-07T04:36:13.626Z,1944.00
2019-06-07T04:37:13.689Z,1988.00
2019-06-07T04:38:13.741Z,2064.00
2019-06-07T04:39:13.834Z,2092.00
2019-06-07T04:40:13.881Z,2136.00
2019-06-07T04:41:13.939Z,2240.00
2019-06-07T04:42:14.008Z,2368.00
2019-06-07T04:43:14.058Z,2432.00
2019-06-07T04:44:14.122Z,2488.00
2019-06-07T04:45:33.080Z,2484.00
2019-06-07T04:46:14.258Z,2476.00
2019-06-07T04:47:14.311Z,2484.00
2019-06-07T04:48:14.370Z,2476.00
2019-06-07T04:49:14.436Z,2392.00
2019-06-07T04:50:14.500Z,2408.00
2019-06-07T04:51:14.880Z,2308.00
2019-06-07T04:52:14.634Z,2324.00
2019-06-07T04:53:14.686Z,2344.00
2019-06-07T04:54:14.754Z,2376.00
2019-06-07T04:55:14.810Z,2420.00
2019-06-07T04:56:14.882Z,2468.00
2019-06-07T04:57:14.960Z,2404.00
2019-06-07T04:58:15.002Z,2296.00
2019-06-07T05:00:00.164Z,2228.00
2019-06-07T05:00:46.691Z,2140.00
2019-06-07T05:01:26.707Z,2124.00
2019-06-07T05:02:15.254Z,2240.00
2019-06-07T05:03:15.315Z,2292.00
2019-06-07T05:04:15.378Z,2328.00
2019-06-07T05:05:15.443Z,2364.00
2019-06-07T05:06:15.515Z,2444.00
2019-06-07T05:07:15.575Z,2496.00
2019-06-07T05:08:27.569Z,2404.00
2019-06-07T05:09:15.695Z,2424.00
2019-06-07T05:10:15.759Z,2532.00
2019-06-07T05:11:15.827Z,2600.00
2019-06-07T05:12:15.895Z,2716.00
2019-06-07T05:13:15.949Z,2748.00
2019-06-07T05:14:16.012Z,2752.00
2019-06-07T05:15:16.075Z,2760.00
2019-06-07T05:16:16.427Z,2744.00
2019-06-07T05:17:16.280Z,2716.00
2019-06-07T05:18:16.263Z,2728.00
2019-06-07T05:19:16.323Z,2716.00
2019-06-07T05:20:16.393Z,2744.00
2019-06-07T05:21:16.460Z,2764.00
2019-06-07T05:22:16.525Z,2764.00
2019-06-07T05:23:59.385Z,2772.00
2019-06-07T05:24:16.645Z,2804.00
2019-06-07T05:25:16.703Z,2836.00
2019-06-07T05:26:16.780Z,2860.00
2019-06-07T05:27:16.873Z,2880.00
2019-06-07T05:28:16.896Z,2880.00
2019-06-07T05:29:16.960Z,2904.00
2019-06-07T05:30:51.206Z,2944.00
2019-06-07T05:31:17.255Z,2976.00
2019-06-07T05:32:17.148Z,2988.00
2019-06-07T05:33:17.233Z,3012.00
2019-06-07T05:34:17.280Z,3028.00
2019-06-07T05:35:17.351Z,3036.00
2019-06-07T05:36:17.408Z,3056.00
2019-06-07T05:37:17.592Z,3072.00
2019-06-07T05:38:17.528Z,3144.00
2019-06-07T05:39:17.589Z,3180.00
2019-06-07T05:40:17.881Z,3216.00
2019-06-07T05:41:17.724Z,3260.00
2019-06-07T05:42:17.789Z,3308.00
2019-06-07T05:43:17.844Z,3336.00
2019-06-07T05:44:17.916Z,3332.00
2019-06-07T05:45:17.968Z,3348.00
2019-06-07T05:46:18.043Z,3340.00
2019-06-07T05:47:18.100Z,3336.00
2019-06-07T05:48:18.166Z,3400.00
2019-06-07T05:49:18.228Z,3412.00
2019-06-07T05:50:38.684Z,3400.00
2019-06-07T05:51:18.364Z,3480.00
2019-06-07T05:52:18.417Z,3536.00
2019-06-07T05:53:18.556Z,3516.00
2019-06-07T05:54:18.541Z,3552.00
2019-06-07T05:55:18.602Z,3588.00
2019-06-07T05:56:18.716Z,3636.00
2019-06-07T05:57:18.738Z,3620.00
2019-06-07T05:58:18.952Z,3716.00
2019-06-07T05:59:18.859Z,3736.00
2019-06-07T06:00:18.926Z,3784.00
2019-06-07T06:01:42.686Z,3600.00
2019-06-07T06:02:23.195Z,3708.00
2019-06-07T06:03:19.115Z,3832.00
2019-06-07T06:04:19.174Z,3888.00
2019-06-07T06:05:33.297Z,3932.00
2019-06-07T06:06:19.582Z,4020.00
2019-06-07T06:07:19.386Z,4064.00
2019-06-07T06:08:19.430Z,4192.00
2019-06-07T06:09:19.491Z,4332.00
2019-06-07T06:10:19.556Z,4492.00
2019-06-07T06:11:19.618Z,5556.00
2019-06-07T06:12:33.831Z,9896.00
2019-06-07T06:13:19.758Z,25184.00
2019-06-07T06:14:20.006Z,45472.00
2019-06-07T06:15:19.874Z,56256.00
2019-06-07T06:16:19.939Z,48064.00
2019-06-07T06:17:20.014Z,51392.00
2019-06-07T06:18:20.123Z,48672.00
2019-06-07T06:19:20.144Z,48736.00
2019-06-07T06:20:20.202Z,58624.00
2019-06-07T06:21:20.678Z,60128.00
2019-06-07T06:22:20.359Z,59264.00
2019-06-07T06:23:20.407Z,58848.00
2019-06-07T06:24:20.475Z,49920.00
2019-06-07T06:25:38.605Z,45280.00
2019-06-07T06:26:20.615Z,44800.00
2019-06-07T06:28:02.648Z,49568.00
2019-06-07T06:28:20.763Z,50880.00
2019-06-07T06:29:20.824Z,49120.00
2019-06-07T06:30:20.892Z,46112.00
2019-06-07T06:31:20.963Z,51648.00
2019-06-07T06:33:33.856Z,46112.00
2019-06-07T06:34:21.176Z,45632.00
2019-06-07T06:35:21.290Z,36960.00
2019-06-07T06:36:21.967Z,31456.00
2019-06-07T06:37:21.401Z,38944.00
2019-06-07T06:38:21.477Z,35712.00
2019-06-07T06:39:21.542Z,37664.00
2019-06-07T06:40:21.607Z,39840.00
2019-06-07T06:41:21.676Z,45120.00
2019-06-07T06:42:21.759Z,42464.00
2019-06-07T06:43:21.832Z,24352.00
2019-06-07T06:44:21.892Z,22624.00
2019-06-07T06:45:21.960Z,35232.00
2019-06-07T06:46:38.250Z,27872.00
2019-06-07T06:47:22.121Z,36960.00
2019-06-07T06:48:22.176Z,32128.00
2019-06-07T06:49:22.248Z,41184.00
2019-06-07T06:50:22.322Z,38080.00
2019-06-07T06:51:22.392Z,35520.00
2019-06-07T06:52:22.468Z,38784.00
2019-06-07T06:53:22.541Z,29600.00
2019-06-07T06:54:40.236Z,40704.00
2019-06-07T06:55:22.676Z,35200.00
2019-06-07T06:56:22.748Z,37440.00
2019-06-07T06:57:22.830Z,40704.00
2019-06-07T06:58:22.897Z,48448.00
2019-06-07T06:59:37.912Z,43648.00
2019-06-07T07:00:42.750Z,39872.00
2019-06-07T07:01:23.105Z,41312.00
2019-06-07T07:02:23.286Z,45856.00
2019-06-07T07:04:23.325Z,48928.00
2019-06-07T07:05:23.399Z,36576.00
2019-06-07T07:06:26.440Z,51008.00
2019-06-07T07:07:23.549Z,53056.00
2019-06-07T07:08:23.627Z,48608.00
2019-06-07T07:09:23.689Z,48864.00
2019-06-07T07:10:23.765Z,52224.00
2019-06-07T07:11:23.842Z,49760.00
2019-06-07T07:12:23.922Z,50656.00
2019-06-07T07:13:23.995Z,54368.00
2019-06-07T07:14:24.061Z,54112.00
2019-06-07T07:15:24.134Z,42528.00
2019-06-07T07:16:24.245Z,36448.00
2019-06-07T07:17:47.088Z,41920.00
2019-06-07T07:18:24.654Z,41888.00
2019-06-07T07:19:24.434Z,43296.00
2019-06-07T07:20:24.757Z,48384.00
2019-06-07T07:21:24.588Z,60640.00
2019-06-07T07:22:24.664Z,55200.00
2019-06-07T07:23:24.742Z,48320.00
2019-06-07T07:24:24.820Z,30880.00
2019-06-07T07:25:24.888Z,29472.00
2019-06-07T07:26:25.006Z,30624.00
2019-06-07T07:27:25.034Z,29088.00
2019-06-07T07:28:25.226Z,25024.00
2019-06-07T07:29:25.187Z,24128.00
2019-06-07T07:30:36.870Z,20384.00
2019-06-07T07:31:25.334Z,17920.00
2019-06-07T07:32:25.416Z,15840.00
2019-06-07T07:33:25.503Z,16064.00
2019-06-07T07:34:35.031Z,15232.00
2019-06-07T07:35:25.639Z,14272.00
2019-06-07T07:36:38.673Z,20736.00
2019-06-07T07:37:25.889Z,23168.00
2019-06-07T07:38:25.867Z,29472.00
2019-06-07T07:39:25.943Z,27424.00
2019-06-07T07:41:26.095Z,34528.00
2019-06-07T07:42:26.163Z,44064.00
2019-06-07T07:43:26.399Z,50016.00
2019-06-07T07:44:26.311Z,46016.00
2019-06-07T07:45:26.389Z,41120.00
2019-06-07T07:46:29.550Z,36736.00
2019-06-07T07:47:26.539Z,32192.00
2019-06-07T07:48:26.619Z,36640.00
2019-06-07T07:49:26.695Z,35936.00
2019-06-07T07:50:26.763Z,35264.00
2019-06-07T07:51:26.840Z,33728.00
2019-06-07T07:52:26.918Z,28096.00
2019-06-07T07:53:45.365Z,32224.00
2019-06-07T07:54:27.072Z,32160.00
2019-06-07T07:55:27.195Z,32128.00
2019-06-07T07:56:27.216Z,31200.00
2019-06-07T07:57:27.308Z,30976.00
2019-06-07T07:58:27.380Z,30784.00
2019-06-07T07:59:41.693Z,30400.00
2019-06-07T08:01:27.596Z,30208.00
2019-06-07T08:02:27.672Z,28096.00
2019-06-07T08:03:27.752Z,28704.00
2019-06-07T08:05:11.996Z,28896.00
2019-06-07T08:05:41.939Z,28672.00
2019-06-07T08:06:27.976Z,28288.00
2019-06-07T08:07:28.280Z,27808.00
2019-06-07T08:08:28.144Z,27040.00
2019-06-07T08:09:28.200Z,25952.00
2019-06-07T08:10:28.277Z,27040.00
2019-06-07T08:11:28.353Z,26624.00
2019-06-07T08:12:28.473Z,26240.00
2019-06-07T08:13:28.531Z,26176.00
2019-06-07T08:14:28.589Z,25728.00
2019-06-07T08:15:28.653Z,25696.00
2019-06-07T08:16:28.728Z,26240.00
2019-06-07T08:17:28.805Z,25824.00
2019-06-07T08:18:28.888Z,25408.00
2019-06-07T08:19:28.964Z,25632.00
2019-06-07T08:20:29.033Z,25120.00
2019-06-07T08:21:29.104Z,23904.00
2019-06-07T08:22:29.184Z,20128.00
2019-06-07T08:23:29.261Z,17152.00
2019-06-07T08:24:29.353Z,16032.00
2019-06-07T08:25:29.406Z,14944.00
2019-06-07T08:26:29.484Z,15232.00
2019-06-07T08:27:29.557Z,15520.00
2019-06-07T08:28:29.634Z,15456.00
2019-06-07T08:29:44.427Z,15456.00
2019-06-07T08:31:29.853Z,14976.00
2019-06-07T08:32:29.930Z,14944.00
2019-06-07T08:33:30.014Z,14072.00
2019-06-07T08:34:30.102Z,14688.00
2019-06-07T08:36:03.724Z,14656.00
2019-06-07T08:36:41.221Z,15488.00
2019-06-07T08:38:13.895Z,15168.00
2019-06-07T08:38:47.109Z,15584.00
2019-06-07T08:39:30.458Z,15520.00
2019-06-07T08:40:30.569Z,15328.00
2019-06-07T08:41:30.612Z,15616.00
2019-06-07T08:42:37.280Z,15552.00
2019-06-07T08:43:30.762Z,15424.00
2019-06-07T08:44:30.844Z,15424.00
2019-06-07T08:45:30.898Z,15424.00
2019-06-07T08:46:30.966Z,15296.00
2019-06-07T08:47:31.155Z,15264.00
2019-06-07T08:48:31.125Z,15264.00
2019-06-07T08:49:31.210Z,15168.00
2019-06-07T08:50:31.258Z,15072.00
2019-06-07T08:51:31.337Z,14848.00
2019-06-07T08:52:31.403Z,15264.00
2019-06-07T08:53:31.478Z,15104.00
2019-06-07T08:54:31.559Z,14848.00
2019-06-07T08:55:31.630Z,14880.00
2019-06-07T08:56:31.698Z,14752.00
2019-06-07T08:57:31.773Z,15008.00
2019-06-07T08:58:31.843Z,14912.00
2019-06-07T08:59:31.923Z,15008.00
2019-06-07T09:00:48.021Z,14976.00
2019-06-07T09:01:32.066Z,11980.00
2019-06-07T09:02:32.139Z,13708.00
2019-06-07T09:03:32.207Z,15232.00
2019-06-07T09:04:32.295Z,14368.00
2019-06-07T09:05:32.364Z,13716.00
2019-06-07T09:07:32.508Z,14752.00
2019-06-07T09:08:32.575Z,14624.00
2019-06-07T09:09:32.652Z,13952.00
2019-06-07T09:10:32.815Z,14112.00
2019-06-07T09:11:32.810Z,14112.00
2019-06-07T09:12:32.863Z,13776.00
2019-06-07T09:13:33.311Z,13784.00
2019-06-07T09:14:33.015Z,13704.00
2019-06-07T09:15:33.088Z,13284.00
2019-06-07T09:16:33.156Z,13516.00
2019-06-07T09:17:34.239Z,13240.00
2019-06-07T09:18:43.235Z,12656.00
2019-06-07T09:19:33.380Z,12872.00
2019-06-07T09:20:36.755Z,13100.00
2019-06-07T09:21:33.524Z,12864.00
2019-06-07T09:22:33.592Z,12824.00
2019-06-07T09:23:33.668Z,12512.00
2019-06-07T09:24:33.744Z,12556.00
2019-06-07T09:25:52.444Z,12680.00
2019-06-07T09:26:33.880Z,12140.00
2019-06-07T09:27:33.960Z,12084.00
2019-06-07T09:28:34.077Z,12124.00
2019-06-07T09:29:34.173Z,11700.00
2019-06-07T09:30:34.168Z,9788.00
2019-06-07T09:31:51.824Z,11804.00
2019-06-07T09:32:34.309Z,11480.00
2019-06-07T09:33:34.380Z,11488.00
2019-06-07T09:34:34.462Z,11864.00
2019-06-07T09:35:34.532Z,10936.00
2019-06-07T09:36:34.597Z,10108.00
2019-06-07T09:38:34.737Z,9544.00
2019-06-07T09:39:34.817Z,8904.00
2019-06-07T09:40:34.888Z,11236.00
2019-06-07T09:41:47.572Z,8912.00
2019-06-07T09:42:35.025Z,10892.00
2019-06-07T09:44:35.365Z,10476.00
2019-06-07T09:45:35.238Z,11484.00
2019-06-07T09:46:35.309Z,11392.00
2019-06-07T09:47:35.377Z,6664.00
2019-06-07T09:49:10.107Z,11020.00
2019-06-07T09:49:35.529Z,9804.00
2019-06-07T09:50:35.597Z,10912.00
2019-06-07T09:51:35.662Z,10780.00
2019-06-07T09:52:57.208Z,10628.00
2019-06-07T09:53:35.805Z,10516.00
2019-06-07T09:55:05.849Z,10232.00
2019-06-07T09:55:35.954Z,10080.00
2019-06-07T09:56:36.093Z,9720.00
2019-06-07T09:57:36.085Z,9584.00
2019-06-07T09:58:53.548Z,9392.00
2019-06-07T09:59:36.434Z,9240.00
2019-06-07T10:00:41.432Z,9108.00
2019-06-07T10:01:36.384Z,8956.00
2019-06-07T10:02:36.438Z,8844.00
2019-06-07T10:03:36.510Z,8712.00
2019-06-07T10:04:36.586Z,8596.00
2019-06-07T10:05:36.658Z,8532.00
2019-06-07T10:06:36.722Z,8384.00
2019-06-07T10:07:36.790Z,8092.00
2019-06-07T10:10:37.013Z,7524.00
2019-06-07T10:11:37.071Z,7496.00
2019-06-07T10:12:37.189Z,7340.00
2019-06-07T10:13:37.215Z,7304.00
2019-06-07T10:14:37.302Z,7188.00
2019-06-07T10:15:37.352Z,7072.00
2019-06-07T10:16:46.591Z,7020.00
2019-06-07T10:17:37.495Z,6988.00
2019-06-07T10:18:37.564Z,6968.00
2019-06-07T10:19:37.639Z,7016.00
2019-06-07T10:20:37.712Z,7016.00
2019-06-07T10:21:37.773Z,7224.00
2019-06-07T10:22:37.843Z,7500.00
2019-06-07T10:23:37.913Z,7344.00
2019-06-07T10:24:38.004Z,7420.00
2019-06-07T10:25:38.059Z,7576.00
2019-06-07T10:26:38.139Z,7664.00
2019-06-07T10:27:38.192Z,5056.00
2019-06-07T10:28:38.260Z,7392.00
2019-06-07T10:29:38.448Z,7156.00
2019-06-07T10:30:38.403Z,5352.00
2019-06-07T10:31:38.473Z,7176.00
2019-06-07T10:32:38.539Z,6892.00
2019-06-07T10:33:38.611Z,6576.00
2019-06-07T10:34:38.689Z,6288.00
2019-06-07T10:35:38.758Z,6084.00
2019-06-07T10:36:38.834Z,5972.00
2019-06-07T10:37:38.889Z,5860.00
2019-06-07T10:38:38.960Z,5860.00
2019-06-07T10:39:48.539Z,5792.00
2019-06-07T10:40:39.104Z,5720.00
2019-06-07T10:41:39.168Z,5612.00
2019-06-07T10:42:39.244Z,5584.00
2019-06-07T10:43:39.304Z,5580.00
2019-06-07T10:44:39.668Z,6440.00
2019-06-07T10:45:39.445Z,5440.00
2019-06-07T10:46:39.516Z,5320.00
2019-06-07T10:47:39.585Z,5292.00
2019-06-07T10:48:39.652Z,5212.00
2019-06-07T10:49:39.728Z,5112.00
2019-06-07T10:50:39.800Z,5056.00
2019-06-07T10:51:39.862Z,5008.00
2019-06-07T10:52:39.930Z,4964.00
2019-06-07T10:53:40.003Z,4916.00
2019-06-07T10:54:40.268Z,4924.00
2019-06-07T10:55:40.137Z,4896.00
2019-06-07T10:56:40.207Z,4840.00
2019-06-07T10:57:40.278Z,4780.00
2019-06-07T10:58:40.345Z,4800.00
2019-06-07T10:59:40.421Z,4796.00
2019-06-07T11:00:40.490Z,4760.00
2019-06-07T11:01:40.555Z,4776.00
2019-06-07T11:02:40.621Z,4756.00
2019-06-07T11:03:40.690Z,4772.00
2019-06-07T11:04:40.766Z,4720.00
2019-06-07T11:05:40.837Z,4728.00
2019-06-07T11:06:40.897Z,4744.00
2019-06-07T11:07:40.967Z,4740.00
2019-06-07T11:08:41.037Z,4724.00
2019-06-07T11:09:41.222Z,4720.00
2019-06-07T11:10:41.173Z,4764.00
2019-06-07T11:11:41.243Z,4732.00
2019-06-07T11:12:41.310Z,4752.00
2019-06-07T11:13:41.381Z,4788.00
2019-06-07T11:14:41.457Z,4816.00
2019-06-07T11:15:41.532Z,4816.00
2019-06-07T11:16:41.586Z,4864.00
2019-06-07T11:17:41.654Z,4800.00
2019-06-07T11:18:41.726Z,4860.00
2019-06-07T11:19:41.802Z,4856.00
2019-06-07T11:20:41.870Z,4812.00
2019-06-07T11:21:41.934Z,4884.00
2019-06-07T11:22:42.002Z,4844.00
2019-06-07T11:23:42.071Z,4828.00
2019-06-07T11:24:42.150Z,4808.00
2019-06-07T11:25:42.206Z,4812.00
2019-06-07T11:26:42.274Z,4776.00
2019-06-07T11:27:42.346Z,4728.00
2019-06-07T11:28:42.424Z,4812.00
2019-06-07T11:29:42.490Z,4820.00
2019-06-07T11:30:42.558Z,4816.00
2019-06-07T11:31:42.618Z,4796.00
2019-06-07T11:32:42.686Z,4820.00
2019-06-07T11:33:42.852Z,4832.00
2019-06-07T11:34:42.834Z,4820.00
2019-06-07T11:35:42.903Z,4852.00
2019-06-07T11:36:42.966Z,4916.00
2019-06-07T11:37:43.036Z,4848.00
2019-06-07T11:38:43.103Z,4892.00
2019-06-07T11:39:43.287Z,4960.00
2019-06-07T11:40:43.240Z,5016.00
2019-06-07T11:41:43.307Z,5120.00
2019-06-07T11:42:43.380Z,5168.00
2019-06-07T11:43:43.447Z,5192.00
2019-06-07T11:44:56.246Z,5312.00
2019-06-07T11:45:43.591Z,5272.00
2019-06-07T11:46:43.659Z,5384.00
2019-06-07T11:47:43.724Z,5304.00
2019-06-07T11:48:43.808Z,5280.00
2019-06-07T11:49:43.868Z,5224.00
2019-06-07T11:50:43.942Z,5152.00
2019-06-07T11:51:43.999Z,5124.00
2019-06-07T11:52:46.335Z,5104.00
2019-06-07T11:53:44.136Z,5124.00
2019-06-07T11:54:47.905Z,5216.00
2019-06-07T11:55:44.277Z,5200.00
2019-06-07T11:56:44.344Z,5224.00
2019-06-07T11:57:44.431Z,5348.00
2019-06-07T11:58:44.484Z,5388.00
2019-06-07T11:59:44.556Z,5464.00
2019-06-07T12:00:44.628Z,5564.00
2019-06-07T12:01:44.688Z,5720.00
2019-06-07T12:02:44.760Z,5872.00
2019-06-07T12:03:44.831Z,5856.00
2019-06-07T12:04:44.904Z,6288.00
2019-06-07T12:05:44.972Z,5756.00
2019-06-07T12:06:45.036Z,5276.00
2019-06-07T12:07:45.104Z,6236.00
2019-06-07T12:08:45.172Z,6284.00
2019-06-07T12:09:55.907Z,6248.00
2019-06-07T12:10:45.328Z,6172.00
2019-06-07T12:11:45.380Z,6400.00
2019-06-07T12:12:45.449Z,6388.00
2019-06-07T12:13:45.521Z,6684.00
2019-06-07T12:14:45.590Z,6904.00
2019-06-07T12:15:48.800Z,7004.00
2019-06-07T12:16:45.737Z,6772.00
2019-06-07T12:17:45.805Z,6700.00
2019-06-07T12:18:45.875Z,6692.00
2019-06-07T12:19:45.941Z,6732.00
2019-06-07T12:20:46.021Z,7768.00
2019-06-07T12:21:46.087Z,6492.00
2019-06-07T12:22:46.146Z,6572.00
2019-06-07T12:23:46.217Z,6732.00
2019-06-07T12:24:46.293Z,6288.00
2019-06-07T12:25:46.377Z,6944.00
2019-06-07T12:26:46.426Z,6928.00
2019-06-07T12:27:46.498Z,6676.00
2019-06-07T12:28:46.570Z,6792.00
2019-06-07T12:29:46.638Z,6952.00
2019-06-07T12:30:46.714Z,6136.00
2019-06-07T12:31:46.789Z,6404.00
2019-06-07T12:32:46.849Z,6328.00